createdAt,value
2022-10-29T00:01:52.804Z,50.98
2022-10-29T00:04:19.326Z,51.08
2022-10-29T00:06:47.631Z,50.98
2022-10-29T00:09:14.116Z,51.15
2022-10-29T00:11:40.654Z,50.97
2022-10-29T00:14:07.097Z,50.84
2022-10-29T00:16:38.053Z,51.15
2022-10-29T00:19:04.949Z,51.31
2022-10-29T00:21:32.672Z,51.25
2022-10-29T00:23:59.125Z,51.04
2022-10-29T00:26:25.889Z,51.04
2022-10-29T00:28:52.508Z,50.84
2022-10-29T00:31:19.140Z,50.78
2022-10-29T00:33:46.122Z,51.08
2022-10-29T00:36:15.097Z,51.22
2022-10-29T00:38:41.736Z,51.21
2022-10-29T00:41:09.015Z,51.04
2022-10-29T00:43:36.707Z,50.94
2022-10-29T00:46:04.194Z,50.86
2022-10-29T00:48:33.567Z,50.87
2022-10-29T00:51:01.238Z,50.72
2022-10-29T00:53:30.185Z,50.96
2022-10-29T00:55:56.968Z,50.80
2022-10-29T00:58:23.412Z,50.90
2022-10-29T01:00:49.880Z,51.02
2022-10-29T01:03:16.325Z,50.99
2022-10-29T01:05:42.784Z,50.74
2022-10-29T01:08:09.224Z,50.79
2022-10-29T01:10:40.273Z,50.99
2022-10-29T01:13:44.332Z,50.77
2022-10-29T01:16:38.749Z,50.94
2022-10-29T01:19:29.179Z,50.99
2022-10-29T01:22:37.211Z,50.77
2022-10-29T01:25:41.078Z,50.98
2022-10-29T01:28:26.158Z,50.84
2022-10-29T01:31:00.482Z,51.03
2022-10-29T01:33:32.649Z,50.95
2022-10-29T01:36:05.055Z,50.80
2022-10-29T01:38:35.485Z,50.73
2022-10-29T01:41:19.688Z,51.12
2022-10-29T01:43:49.566Z,50.83
2022-10-29T01:46:24.517Z,51.08
2022-10-29T01:48:52.818Z,50.89
2022-10-29T01:51:22.194Z,51.22
2022-10-29T01:53:48.709Z,51.20
2022-10-29T01:56:15.172Z,50.98
2022-10-29T01:58:43.318Z,51.17
2022-10-29T02:01:23.025Z,50.96
2022-10-29T02:04:11.308Z,51.16
2022-10-29T02:06:49.961Z,50.87
2022-10-29T02:09:41.858Z,50.93
2022-10-29T02:12:19.996Z,50.98
2022-10-29T02:14:49.317Z,50.88
2022-10-29T02:17:15.927Z,50.91
2022-10-29T02:19:42.411Z,50.83
2022-10-29T02:22:08.872Z,51.14
2022-10-29T02:24:35.342Z,50.90
2022-10-29T02:27:01.802Z,50.81
2022-10-29T02:29:28.245Z,50.90
2022-10-29T02:31:54.707Z,50.93
2022-10-29T02:34:21.138Z,50.96
2022-10-29T02:36:47.880Z,50.90
2022-10-29T02:39:14.323Z,51.17
2022-10-29T02:41:41.167Z,50.87
2022-10-29T02:44:07.626Z,50.95
2022-10-29T02:46:39.403Z,51.06
2022-10-29T02:49:06.806Z,50.93
2022-10-29T02:51:33.378Z,51.08
2022-10-29T02:53:59.827Z,51.19
2022-10-29T02:56:26.272Z,51.05
2022-10-29T02:58:52.783Z,50.85
2022-10-29T03:01:19.347Z,50.93
2022-10-29T03:03:45.846Z,50.85
2022-10-29T03:06:13.750Z,50.76
2022-10-29T03:08:40.204Z,50.77
2022-10-29T03:11:06.659Z,50.96
2022-10-29T03:13:33.189Z,50.77
2022-10-29T03:15:59.658Z,50.93
2022-10-29T03:18:26.110Z,50.76
2022-10-29T03:20:52.870Z,50.97
2022-10-29T03:23:19.373Z,50.99
2022-10-29T03:25:55.529Z,50.73
2022-10-29T03:28:23.326Z,51.08
2022-10-29T03:30:49.765Z,51.02
2022-10-29T03:33:16.229Z,51.12
2022-10-29T03:35:42.805Z,51.21
2022-10-29T03:38:09.367Z,51.38
2022-10-29T03:40:35.808Z,51.15
2022-10-29T03:43:02.271Z,51.18
2022-10-29T03:45:28.721Z,51.30
2022-10-29T03:47:56.507Z,51.22
2022-10-29T03:50:23.173Z,51.42
2022-10-29T03:52:49.881Z,51.16
2022-10-29T03:56:28.147Z,51.25
2022-10-29T03:58:54.560Z,51.04
2022-10-29T04:01:21.071Z,50.96
2022-10-29T04:03:47.612Z,51.32
2022-10-29T04:06:15.202Z,51.09
2022-10-29T04:08:41.998Z,51.14
2022-10-29T04:11:12.184Z,50.93
2022-10-29T04:13:38.837Z,50.94
2022-10-29T04:16:05.610Z,50.90
2022-10-29T04:18:32.033Z,51.36
2022-10-29T04:29:22.144Z,50.86
2022-10-29T04:31:49.013Z,50.89
2022-10-29T04:34:15.593Z,50.98
2022-10-29T04:36:42.051Z,51.23
2022-10-29T04:39:08.518Z,50.87
2022-10-29T04:41:35.073Z,51.09
2022-10-29T04:44:02.201Z,50.83
2022-10-29T04:46:28.667Z,50.91
2022-10-29T04:48:55.488Z,51.11
2022-10-29T04:51:23.236Z,51.06
2022-10-29T04:53:49.742Z,51.18
2022-10-29T04:56:16.440Z,50.96
2022-10-29T04:58:42.893Z,50.99
2022-10-29T05:01:09.462Z,51.09
2022-10-29T05:03:36.119Z,51.18
2022-10-29T05:06:04.192Z,51.02
2022-10-29T05:08:30.695Z,51.13
2022-10-29T05:10:57.185Z,51.28
2022-10-29T05:13:31.067Z,51.40
2022-10-29T05:15:57.522Z,51.22
2022-10-29T05:18:23.978Z,51.07
2022-10-29T05:20:54.796Z,51.32
2022-10-29T05:23:21.273Z,51.29
2022-10-29T05:25:52.030Z,51.43
2022-10-29T05:28:20.066Z,51.08
2022-10-29T05:30:47.596Z,51.31
2022-10-29T05:33:18.585Z,51.11
2022-10-29T05:35:45.151Z,51.42
2022-10-29T05:38:12.215Z,51.25
2022-10-29T05:40:39.109Z,51.31
2022-10-29T05:43:05.794Z,51.10
2022-10-29T05:45:32.275Z,51.26
2022-10-29T05:47:59.860Z,51.03
2022-10-29T05:50:26.831Z,51.02
2022-10-29T05:53:00.656Z,51.07
2022-10-29T05:55:27.450Z,51.30
2022-10-29T05:58:00.057Z,50.97
2022-10-29T06:00:27.409Z,51.10
2022-10-29T06:02:54.109Z,50.92
2022-10-29T06:05:20.831Z,51.00
2022-10-29T06:07:47.309Z,50.90
2022-10-29T06:10:13.797Z,50.93
2022-10-29T06:12:40.646Z,50.94
2022-10-29T06:15:07.719Z,51.03
2022-10-29T06:17:34.455Z,50.83
2022-10-29T06:20:02.446Z,51.01
2022-10-29T06:22:28.908Z,50.95
2022-10-29T06:24:55.374Z,50.97
2022-10-29T06:27:21.826Z,50.87
2022-10-29T06:29:48.421Z,50.76
2022-10-29T06:32:14.881Z,50.62
2022-10-29T06:34:41.366Z,50.88
2022-10-29T06:37:07.849Z,50.84
2022-10-29T06:39:34.321Z,50.73
2022-10-29T06:42:00.773Z,50.57
2022-10-29T06:44:27.221Z,50.80
2022-10-29T06:46:53.733Z,50.71
2022-10-29T06:49:20.703Z,50.96
2022-10-29T06:51:47.443Z,51.05
2022-10-29T06:54:13.970Z,50.80
2022-10-29T06:56:40.414Z,50.87
2022-10-29T06:59:07.085Z,51.60
2022-10-29T07:01:33.678Z,51.36
2022-10-29T07:04:00.398Z,51.54
2022-10-29T07:06:26.845Z,51.67
2022-10-29T07:08:53.281Z,51.85
2022-10-29T07:11:19.730Z,51.77
2022-10-29T07:13:46.250Z,51.89
2022-10-29T07:16:12.710Z,51.79
2022-10-29T07:18:39.233Z,51.78
2022-10-29T07:21:05.908Z,51.59
2022-10-29T07:23:32.413Z,51.69
2022-10-29T07:25:58.870Z,51.78
2022-10-29T07:28:25.559Z,51.66
2022-10-29T07:30:52.580Z,51.47
2022-10-29T07:33:19.141Z,51.87
2022-10-29T07:35:45.807Z,51.55
2022-10-29T07:38:12.464Z,51.70
2022-10-29T07:40:39.336Z,51.93
2022-10-29T07:43:05.957Z,52.13
2022-10-29T07:45:32.790Z,51.75
2022-10-29T07:48:04.087Z,51.87
2022-10-29T07:50:31.118Z,51.99
2022-10-29T07:53:01.056Z,52.01
2022-10-29T07:58:01.259Z,52.02
2022-10-29T08:00:31.863Z,52.05
2022-10-29T08:02:58.364Z,52.30
2022-10-29T08:05:25.497Z,52.06
2022-10-29T08:07:55.655Z,52.03
2022-10-29T08:10:23.072Z,51.93
2022-10-29T08:12:53.748Z,51.95
2022-10-29T08:15:20.479Z,51.81
2022-10-29T08:17:46.941Z,51.87
2022-10-29T08:20:13.881Z,51.79
2022-10-29T08:22:40.379Z,51.52
2022-10-29T08:25:07.209Z,51.61
2022-10-29T08:27:33.730Z,51.51
2022-10-29T08:30:00.236Z,51.42
2022-10-29T08:32:26.731Z,51.53
2022-10-29T08:34:53.207Z,51.29
2022-10-29T08:37:19.735Z,51.36
2022-10-29T08:39:46.199Z,51.07
2022-10-29T08:42:34.944Z,51.46
2022-10-29T08:45:16.601Z,51.39
2022-10-29T08:47:59.270Z,51.30
2022-10-29T08:50:28.926Z,51.28
2022-10-29T08:53:19.360Z,51.36
2022-10-29T08:55:41.889Z,51.31
2022-10-29T08:58:18.633Z,51.23
2022-10-29T09:00:45.137Z,51.23
2022-10-29T09:03:12.418Z,51.04
2022-10-29T09:06:04.794Z,51.16
2022-10-29T09:08:38.155Z,51.25
2022-10-29T09:11:26.851Z,51.18
2022-10-29T09:14:45.322Z,51.15
2022-10-29T09:17:19.029Z,51.33
2022-10-29T09:19:52.977Z,51.26
2022-10-29T09:22:50.855Z,51.38
2022-10-29T09:25:39.150Z,51.27
2022-10-29T09:28:21.338Z,51.18
2022-10-29T09:31:05.945Z,51.25
2022-10-29T09:33:32.462Z,51.01
2022-10-29T09:35:59.481Z,51.34
2022-10-29T09:38:29.659Z,51.00
2022-10-29T09:41:00.422Z,51.36
2022-10-29T09:43:45.289Z,51.18
2022-10-29T09:46:26.846Z,50.93
2022-10-29T09:52:03.997Z,50.93
2022-10-29T09:54:30.870Z,50.71
2022-10-29T09:56:57.695Z,50.71
2022-10-29T09:59:35.068Z,50.27
2022-10-29T10:02:01.656Z,50.04
2022-10-29T10:04:36.175Z,49.92
2022-10-29T10:07:11.925Z,50.04
2022-10-29T10:09:57.713Z,49.98
2022-10-29T10:12:36.267Z,49.93
2022-10-29T10:15:16.276Z,49.59
2022-10-29T10:18:05.687Z,49.66
2022-10-29T10:20:37.876Z,49.51
2022-10-29T10:23:22.318Z,49.60
2022-10-29T10:25:48.981Z,49.48
2022-10-29T10:28:18.250Z,49.37
2022-10-29T10:30:45.927Z,49.24
2022-10-29T10:35:49.521Z,49.17
2022-10-29T10:38:15.992Z,49.42
2022-10-29T10:40:42.525Z,49.11
2022-10-29T10:43:20.002Z,49.39
2022-10-29T10:45:46.504Z,49.17
2022-10-29T10:48:13.138Z,49.23
2022-10-29T10:50:39.694Z,48.87
2022-10-29T10:53:17.266Z,49.01
2022-10-29T10:55:51.500Z,48.95
2022-10-29T10:58:20.256Z,49.05
2022-10-29T11:01:08.418Z,49.05
2022-10-29T11:03:56.795Z,49.17
2022-10-29T11:06:25.834Z,49.51
2022-10-29T11:09:00.849Z,49.55
2022-10-29T11:11:36.589Z,49.16
2022-10-29T11:14:22.215Z,49.25
2022-10-29T11:16:58.499Z,49.41
2022-10-29T11:19:31.318Z,48.93
2022-10-29T11:22:28.103Z,48.95
2022-10-29T11:25:15.583Z,48.78
2022-10-29T11:27:53.268Z,48.98
2022-10-29T11:30:19.789Z,49.09
2022-10-29T11:32:56.656Z,49.03
2022-10-29T11:35:45.991Z,49.07
2022-10-29T11:38:31.967Z,49.97
2022-10-29T11:41:04.984Z,49.40
2022-10-29T11:43:32.106Z,48.89
2022-10-29T11:46:12.321Z,48.98
2022-10-29T11:48:49.235Z,48.95
2022-10-29T11:51:26.237Z,48.66
2022-10-29T11:54:04.634Z,48.98
2022-10-29T11:56:48.531Z,49.34
2022-10-29T11:59:39.274Z,49.44
2022-10-29T12:02:29.643Z,49.58
2022-10-29T12:05:02.030Z,49.59
2022-10-29T12:07:53.578Z,49.59
2022-10-29T12:10:31.976Z,49.86
2022-10-29T12:13:03.780Z,49.66
2022-10-29T12:15:38.069Z,49.55
2022-10-29T12:18:16.699Z,49.91
2022-10-29T12:20:45.710Z,49.78
2022-10-29T12:23:25.237Z,49.75
2022-10-29T12:26:09.592Z,49.91
2022-10-29T12:28:39.604Z,49.35
2022-10-29T12:31:05.968Z,49.51
2022-10-29T12:33:59.483Z,49.27
2022-10-29T12:36:37.803Z,49.02
2022-10-29T12:39:05.520Z,49.01
2022-10-29T12:41:36.720Z,48.97
2022-10-29T12:44:12.143Z,49.22
2022-10-29T12:46:41.642Z,48.89
2022-10-29T12:49:10.610Z,49.39
2022-10-29T12:54:54.985Z,49.68
2022-10-29T12:57:34.830Z,49.75
2022-10-29T13:00:23.108Z,50.08
2022-10-29T13:02:56.459Z,49.92
2022-10-29T13:05:26.174Z,50.18
2022-10-29T13:07:59.289Z,50.06
2022-10-29T13:10:47.338Z,50.20
2022-10-29T13:13:13.658Z,50.29
2022-10-29T13:15:43.750Z,50.37
2022-10-29T13:18:13.107Z,50.42
2022-10-29T13:20:40.775Z,50.28
2022-10-29T13:23:29.023Z,50.45
2022-10-29T13:25:58.820Z,50.06
2022-10-29T13:28:25.169Z,50.43
2022-10-29T13:30:53.186Z,50.22
2022-10-29T13:33:28.742Z,50.36
2022-10-29T13:36:05.647Z,50.63
2022-10-29T13:39:04.203Z,50.59
2022-10-29T13:41:40.231Z,50.65
2022-10-29T13:44:10.801Z,50.52
2022-10-29T13:46:44.776Z,50.42
2022-10-29T13:49:20.824Z,50.88
2022-10-29T13:52:00.274Z,51.08
2022-10-29T13:54:54.251Z,51.05
2022-10-29T13:57:37.024Z,50.91
2022-10-29T14:00:08.396Z,51.13
2022-10-29T14:02:46.986Z,50.91
2022-10-29T14:05:33.878Z,51.14
2022-10-29T14:08:01.443Z,51.07
2022-10-29T14:13:28.369Z,51.23
2022-10-29T14:16:06.993Z,50.92
2022-10-29T14:18:40.703Z,51.26
2022-10-29T14:21:21.934Z,51.15
2022-10-29T14:23:58.276Z,51.45
2022-10-29T14:26:25.034Z,51.45
2022-10-29T14:28:52.089Z,51.53
2022-10-29T14:31:22.318Z,51.25
2022-10-29T14:33:59.057Z,51.31
2022-10-29T14:36:42.460Z,51.43
2022-10-29T14:39:18.093Z,51.51
2022-10-29T14:41:47.374Z,51.40
2022-10-29T14:44:24.570Z,51.57
2022-10-29T14:47:00.840Z,51.81
2022-10-29T14:49:27.310Z,51.91
2022-10-29T14:51:59.146Z,51.63
2022-10-29T14:54:26.940Z,51.78
2022-10-29T14:57:01.878Z,51.88
2022-10-29T14:59:29.497Z,52.04
2022-10-29T15:02:05.664Z,51.73
2022-10-29T15:04:49.180Z,52.26
2022-10-29T15:07:25.312Z,51.96
2022-10-29T15:10:03.541Z,51.37
2022-10-29T15:12:35.083Z,51.05
2022-10-29T15:15:16.847Z,51.33
2022-10-29T15:18:13.640Z,51.50
2022-10-29T15:20:39.985Z,51.77
2022-10-29T15:23:06.470Z,51.80
2022-10-29T15:25:36.940Z,51.90
2022-10-29T15:28:03.522Z,51.61
2022-10-29T15:30:35.229Z,51.44
2022-10-29T15:33:08.594Z,51.65
2022-10-29T15:35:36.036Z,51.33
2022-10-29T15:38:02.597Z,51.61
2022-10-29T15:40:29.060Z,51.55
2022-10-29T15:42:56.011Z,51.47
2022-10-29T15:45:24.630Z,51.74
2022-10-29T15:48:12.123Z,51.99
2022-10-29T15:50:40.908Z,51.67
2022-10-29T15:53:11.778Z,51.79
2022-10-29T15:55:38.524Z,51.78
2022-10-29T15:58:06.707Z,51.44
2022-10-29T16:00:33.266Z,51.54
2022-10-29T16:03:17.410Z,51.61
2022-10-29T16:05:46.925Z,51.43
2022-10-29T16:08:33.551Z,51.45
2022-10-29T16:11:00.988Z,51.56
2022-10-29T16:13:28.551Z,51.46
2022-10-29T16:15:55.019Z,51.76
2022-10-29T16:18:21.526Z,51.67
2022-10-29T16:20:48.256Z,51.21
2022-10-29T16:23:14.911Z,51.62
2022-10-29T16:28:07.699Z,51.54
2022-10-29T16:30:34.182Z,51.97
2022-10-29T16:33:01.160Z,52.04
2022-10-29T16:35:28.333Z,52.06
2022-10-29T16:37:55.335Z,52.14
2022-10-29T16:40:23.772Z,52.01
2022-10-29T16:42:50.397Z,52.13
2022-10-29T16:45:24.727Z,52.32
2022-10-29T16:47:52.205Z,52.25
2022-10-29T16:50:27.086Z,52.47
2022-10-29T16:52:57.709Z,52.41
2022-10-29T16:55:24.892Z,52.18
2022-10-29T16:57:51.380Z,52.11
2022-10-29T17:00:17.910Z,52.63
2022-10-29T17:02:45.688Z,52.33
2022-10-29T17:05:12.983Z,52.34
2022-10-29T17:07:39.555Z,52.16
2022-10-29T17:10:06.462Z,51.82
2022-10-29T17:12:33.131Z,52.91
2022-10-29T17:14:59.594Z,52.67
2022-10-29T17:17:26.059Z,53.28
2022-10-29T17:19:53.725Z,52.64
2022-10-29T17:22:20.191Z,53.18
2022-10-29T17:24:46.658Z,54.40
2022-10-29T17:27:13.182Z,53.50
2022-10-29T17:29:39.667Z,53.73
2022-10-29T17:32:06.889Z,54.01
2022-10-29T17:34:33.734Z,54.97
2022-10-29T17:37:00.197Z,54.92
2022-10-29T17:39:26.668Z,55.07
2022-10-29T17:41:53.173Z,55.12
2022-10-29T17:44:19.683Z,54.43
2022-10-29T17:46:46.139Z,54.33
2022-10-29T17:49:12.716Z,54.59
2022-10-29T17:51:39.175Z,55.32
2022-10-29T17:54:05.714Z,55.34
2022-10-29T17:56:32.422Z,55.07
2022-10-29T17:58:58.921Z,55.18
2022-10-29T18:01:25.531Z,55.13
2022-10-29T18:03:52.090Z,54.64
2022-10-29T18:06:18.549Z,54.96
2022-10-29T18:08:45.218Z,54.23
2022-10-29T18:11:16.917Z,54.61
2022-10-29T18:13:43.982Z,54.42
2022-10-29T18:16:11.510Z,54.28
2022-10-29T18:18:48.337Z,54.13
2022-10-29T18:21:25.550Z,53.95
2022-10-29T18:23:52.302Z,54.28
2022-10-29T18:26:47.919Z,53.82
2022-10-29T18:29:14.378Z,54.18
2022-10-29T18:31:44.870Z,54.16
2022-10-29T18:34:11.697Z,53.99
2022-10-29T18:36:39.071Z,54.02
2022-10-29T18:39:06.138Z,53.72
2022-10-29T18:41:32.760Z,53.71
2022-10-29T18:44:00.541Z,53.66
2022-10-29T18:46:27.133Z,53.35
2022-10-29T18:48:53.919Z,53.79
2022-10-29T18:51:25.387Z,53.54
2022-10-29T18:53:52.726Z,54.01
2022-10-29T18:56:20.451Z,53.86
2022-10-29T18:58:46.932Z,53.85
2022-10-29T19:01:17.011Z,53.83
2022-10-29T19:03:43.625Z,53.96
2022-10-29T19:06:11.558Z,54.19
2022-10-29T19:08:39.709Z,53.59
2022-10-29T19:11:07.967Z,53.70
2022-10-29T19:13:34.446Z,53.57
2022-10-29T19:16:05.563Z,53.53
2022-10-29T19:18:32.135Z,53.68
2022-10-29T19:21:05.484Z,53.50
2022-10-29T19:23:32.134Z,53.38
2022-10-29T19:26:02.939Z,53.45
2022-10-29T19:28:29.899Z,53.72
2022-10-29T19:31:04.014Z,53.62
2022-10-29T19:33:30.591Z,53.50
2022-10-29T19:35:57.231Z,53.21
2022-10-29T19:38:23.890Z,53.14
2022-10-29T19:40:50.574Z,53.28
2022-10-29T19:43:17.061Z,52.76
2022-10-29T19:45:43.533Z,52.50
2022-10-29T19:48:09.990Z,52.15
2022-10-29T19:50:36.502Z,52.00
2022-10-29T19:53:03.000Z,51.64
2022-10-29T19:55:29.721Z,51.62
2022-10-29T19:57:56.182Z,51.47
2022-10-29T20:00:23.769Z,51.28
2022-10-29T20:02:53.335Z,50.78
2022-10-29T20:05:20.623Z,50.74
2022-10-29T20:07:49.069Z,50.53
2022-10-29T20:10:18.645Z,50.63
2022-10-29T20:12:45.112Z,50.89
2022-10-29T20:15:12.074Z,50.40
2022-10-29T20:17:38.607Z,50.13
2022-10-29T20:20:06.067Z,50.13
2022-10-29T20:22:32.523Z,50.20
2022-10-29T20:24:58.979Z,50.04
2022-10-29T20:27:25.433Z,49.98
2022-10-29T20:29:51.888Z,50.04
2022-10-29T20:32:18.345Z,49.88
2022-10-29T20:34:44.810Z,49.76
2022-10-29T20:37:11.269Z,49.44
2022-10-29T20:39:37.730Z,49.56
2022-10-29T20:42:04.202Z,49.66
2022-10-29T20:44:30.674Z,49.17
2022-10-29T20:46:57.134Z,49.35
2022-10-29T20:49:23.598Z,49.31
2022-10-29T20:51:50.055Z,48.86
2022-10-29T20:54:16.526Z,49.13
2022-10-29T20:56:43.018Z,48.82
2022-10-29T20:59:09.531Z,48.55
2022-10-29T21:01:36.026Z,48.38
2022-10-29T21:04:02.642Z,48.46
2022-10-29T21:06:29.881Z,48.22
2022-10-29T21:08:56.457Z,48.45
2022-10-29T21:11:23.255Z,48.22
2022-10-29T21:13:49.736Z,47.90
2022-10-29T21:16:27.294Z,47.75
2022-10-29T21:18:56.343Z,48.07
2022-10-29T21:21:22.883Z,48.14
2022-10-29T21:23:49.402Z,48.00
2022-10-29T21:26:17.467Z,47.75
2022-10-29T21:28:43.968Z,47.59
2022-10-29T21:31:10.491Z,47.50
2022-10-29T21:33:37.143Z,47.58
2022-10-29T21:36:03.763Z,47.68
2022-10-29T21:38:30.387Z,47.37
2022-10-29T21:40:56.882Z,47.44
2022-10-29T21:43:23.870Z,47.08
2022-10-29T21:45:50.772Z,46.93
2022-10-29T21:48:17.360Z,47.21
2022-10-29T21:50:43.883Z,47.25
2022-10-29T21:53:10.638Z,47.14
2022-10-29T21:55:37.126Z,47.17
2022-10-29T21:58:03.681Z,46.91
2022-10-29T22:00:30.622Z,46.97
2022-10-29T22:03:04.331Z,46.95
2022-10-29T22:05:31.323Z,46.96
2022-10-29T22:07:58.453Z,47.16
2022-10-29T22:10:25.426Z,47.07
2022-10-29T22:12:52.034Z,47.21
2022-10-29T22:15:18.494Z,47.30
2022-10-29T22:17:44.942Z,47.08
2022-10-29T22:20:11.746Z,47.20
2022-10-29T22:22:38.218Z,47.18
2022-10-29T22:25:05.266Z,47.12
2022-10-29T22:27:31.713Z,46.90
2022-10-29T22:29:58.193Z,47.00
2022-10-29T22:32:24.678Z,46.88
2022-10-29T22:34:51.194Z,47.23
2022-10-29T22:37:17.654Z,47.03
2022-10-29T22:39:44.833Z,46.96
2022-10-29T22:42:11.326Z,46.88
2022-10-29T22:44:37.867Z,47.18
2022-10-29T22:47:04.410Z,46.97
2022-10-29T22:49:30.890Z,46.93
2022-10-29T22:52:00.577Z,47.19
2022-10-29T22:54:28.309Z,46.88
2022-10-29T22:56:54.769Z,46.87
2022-10-29T22:59:21.267Z,47.26
2022-10-29T23:01:47.903Z,46.85
2022-10-29T23:04:15.605Z,46.91
2022-10-29T23:06:42.064Z,46.90
2022-10-29T23:09:08.594Z,47.00
2022-10-29T23:11:38.891Z,47.29
2022-10-29T23:14:05.512Z,46.99
2022-10-29T23:16:32.861Z,47.02
2022-10-29T23:19:01.087Z,46.89
2022-10-29T23:21:27.917Z,47.37
2022-10-29T23:23:54.526Z,46.94
2022-10-29T23:26:21.718Z,47.00
2022-10-29T23:28:49.012Z,47.26
2022-10-29T23:31:17.074Z,46.95
2022-10-29T23:33:48.641Z,47.17
2022-10-29T23:36:15.293Z,46.89
2022-10-29T23:38:41.818Z,47.22
2022-10-29T23:41:08.316Z,47.31
2022-10-29T23:43:34.832Z,46.99
2022-10-29T23:46:01.364Z,47.05
2022-10-29T23:48:27.900Z,47.13
2022-10-29T23:50:54.478Z,47.25
2022-10-29T23:53:20.962Z,47.35
2022-10-29T23:55:47.726Z,47.24
2022-10-29T23:58:14.319Z,47.16
